sensor_id;sensor_type;location;lat;lon;timestamp;pressure;altitude;pressure_sealevel;temperature;humidity
42727;BME280;28372;56.832;60.658;2023-10-19T00:01:58;97105.28;;;6.76;48.30
42727;BME280;28372;56.832;60.658;2023-10-19T00:04:26;97086.41;;;6.73;48.39
42727;BME280;28372;56.832;60.658;2023-10-19T00:07:02;97102.69;;;6.83;47.28
42727;BME280;28372;56.832;60.658;2023-10-19T00:09:31;97103.31;;;6.73;48.42
42727;BME280;28372;56.832;60.658;2023-10-19T00:12:04;97105.31;;;6.80;48.01
42727;BME280;28372;56.832;60.658;2023-10-19T00:14:37;97089.56;;;6.78;48.11
42727;BME280;28372;56.832;60.658;2023-10-19T00:17:04;97093.72;;;6.72;48.72
42727;BME280;28372;56.832;60.658;2023-10-19T00:19:57;97097.97;;;6.77;48.38
42727;BME280;28372;56.832;60.658;2023-10-19T00:22:25;97096.75;;;6.71;48.78
42727;BME280;28372;56.832;60.658;2023-10-19T00:24:53;97094.47;;;6.73;48.81
42727;BME280;28372;56.832;60.658;2023-10-19T00:27:21;97093.66;;;6.68;48.45
42727;BME280;28372;56.832;60.658;2023-10-19T00:29:50;97107.84;;;6.69;48.92
42727;BME280;28372;56.832;60.658;2023-10-19T00:32:22;97107.16;;;6.72;48.32
42727;BME280;28372;56.832;60.658;2023-10-19T00:34:52;97100.28;;;6.75;48.80
42727;BME280;28372;56.832;60.658;2023-10-19T00:37:21;97106.50;;;6.82;48.58
42727;BME280;28372;56.832;60.658;2023-10-19T00:39:55;97113.47;;;6.87;48.60
42727;BME280;28372;56.832;60.658;2023-10-19T00:42:23;97111.16;;;6.85;49.42
42727;BME280;28372;56.832;60.658;2023-10-19T00:44:58;97121.91;;;6.85;48.82
42727;BME280;28372;56.832;60.658;2023-10-19T00:47:33;97123.41;;;6.83;48.77
42727;BME280;28372;56.832;60.658;2023-10-19T00:50:20;97121.22;;;6.92;48.51
42727;BME280;28372;56.832;60.658;2023-10-19T00:52:54;97123.91;;;6.92;48.95
42727;BME280;28372;56.832;60.658;2023-10-19T00:55:25;97128.16;;;6.93;48.54
42727;BME280;28372;56.832;60.658;2023-10-19T00:57:56;97116.63;;;6.93;48.85
42727;BME280;28372;56.832;60.658;2023-10-19T01:00:25;97123.63;;;6.97;48.48
42727;BME280;28372;56.832;60.658;2023-10-19T01:03:02;97128.25;;;7.00;48.70
42727;BME280;28372;56.832;60.658;2023-10-19T01:05:32;97123.28;;;7.02;48.71
42727;BME280;28372;56.832;60.658;2023-10-19T01:08:05;97126.44;;;7.08;48.15
42727;BME280;28372;56.832;60.658;2023-10-19T01:10:52;97115.28;;;7.06;48.50
42727;BME280;28372;56.832;60.658;2023-10-19T01:13:21;97128.81;;;7.13;47.75
42727;BME280;28372;56.832;60.658;2023-10-19T01:15:55;97117.22;;;7.09;48.17
42727;BME280;28372;56.832;60.658;2023-10-19T01:18:25;97118.38;;;7.08;48.41
42727;BME280;28372;56.832;60.658;2023-10-19T01:20:57;97123.50;;;7.17;47.74
42727;BME280;28372;56.832;60.658;2023-10-19T01:23:24;97119.88;;;7.06;49.34
42727;BME280;28372;56.832;60.658;2023-10-19T01:25:54;97119.69;;;7.22;48.26
42727;BME280;28372;56.832;60.658;2023-10-19T01:28:30;97115.19;;;7.63;43.39
42727;BME280;28372;56.832;60.658;2023-10-19T01:31:20;97126.81;;;7.37;47.77
42727;BME280;28372;56.832;60.658;2023-10-19T01:33:59;97122.59;;;7.40;47.89
42727;BME280;28372;56.832;60.658;2023-10-19T01:36:34;97113.19;;;7.23;47.95
42727;BME280;28372;56.832;60.658;2023-10-19T01:39:10;97121.25;;;7.23;47.75
42727;BME280;28372;56.832;60.658;2023-10-19T01:41:39;97122.78;;;7.24;47.95
42727;BME280;28372;56.832;60.658;2023-10-19T01:44:10;97120.44;;;7.18;48.79
42727;BME280;28372;56.832;60.658;2023-10-19T01:46:42;97142.34;;;7.20;48.35
42727;BME280;28372;56.832;60.658;2023-10-19T01:49:13;97136.94;;;7.17;48.60
42727;BME280;28372;56.832;60.658;2023-10-19T01:51:41;97136.97;;;7.20;48.36
42727;BME280;28372;56.832;60.658;2023-10-19T01:54:11;97123.22;;;7.26;48.07
42727;BME280;28372;56.832;60.658;2023-10-19T01:56:39;97133.28;;;7.32;47.87
42727;BME280;28372;56.832;60.658;2023-10-19T01:59:11;97129.69;;;7.21;49.16
42727;BME280;28372;56.832;60.658;2023-10-19T02:01:39;97128.53;;;7.22;48.77
42727;BME280;28372;56.832;60.658;2023-10-19T02:04:09;97136.13;;;7.47;47.63
42727;BME280;28372;56.832;60.658;2023-10-19T02:06:39;97124.25;;;7.48;47.67
42727;BME280;28372;56.832;60.658;2023-10-19T02:09:13;97133.81;;;7.79;43.77
42727;BME280;28372;56.832;60.658;2023-10-19T02:11:59;97130.50;;;7.59;47.47
42727;BME280;28372;56.832;60.658;2023-10-19T02:14:33;97134.94;;;7.44;48.26
42727;BME280;28372;56.832;60.658;2023-10-19T02:17:05;97134.19;;;7.44;47.58
42727;BME280;28372;56.832;60.658;2023-10-19T02:19:33;97130.69;;;7.43;47.97
42727;BME280;28372;56.832;60.658;2023-10-19T02:22:04;97133.72;;;7.38;48.57
42727;BME280;28372;56.832;60.658;2023-10-19T02:24:36;97142.28;;;7.47;48.46
42727;BME280;28372;56.832;60.658;2023-10-19T02:27:04;97136.44;;;7.42;47.97
42727;BME280;28372;56.832;60.658;2023-10-19T02:29:37;97149.63;;;7.50;48.13
42727;BME280;28372;56.832;60.658;2023-10-19T02:32:05;97151.91;;;7.48;48.41
42727;BME280;28372;56.832;60.658;2023-10-19T02:34:33;97163.03;;;7.47;49.22
42727;BME280;28372;56.832;60.658;2023-10-19T02:37:04;97173.53;;;7.55;48.59
42727;BME280;28372;56.832;60.658;2023-10-19T02:39:32;97176.63;;;7.58;48.29
42727;BME280;28372;56.832;60.658;2023-10-19T02:41:59;97176.03;;;7.71;47.73
42727;BME280;28372;56.832;60.658;2023-10-19T02:44:29;97175.59;;;7.69;47.70
42727;BME280;28372;56.832;60.658;2023-10-19T02:47:00;97185.09;;;7.60;48.61
42727;BME280;28372;56.832;60.658;2023-10-19T02:49:33;97177.94;;;7.71;47.96
42727;BME280;28372;56.832;60.658;2023-10-19T02:52:05;97190.28;;;7.76;47.37
42727;BME280;28372;56.832;60.658;2023-10-19T02:54:33;97186.38;;;7.69;47.50
42727;BME280;28372;56.832;60.658;2023-10-19T02:57:03;97170.91;;;7.63;48.38
42727;BME280;28372;56.832;60.658;2023-10-19T02:59:36;97191.75;;;7.69;47.16
42727;BME280;28372;56.832;60.658;2023-10-19T03:02:04;97187.78;;;7.56;47.14
42727;BME280;28372;56.832;60.658;2023-10-19T03:04:45;97185.78;;;7.53;47.63
42727;BME280;28372;56.832;60.658;2023-10-19T03:07:14;97207.75;;;7.59;47.58
42727;BME280;28372;56.832;60.658;2023-10-19T03:09:43;97206.31;;;7.65;47.13
42727;BME280;28372;56.832;60.658;2023-10-19T03:12:31;97196.75;;;7.67;46.75
42727;BME280;28372;56.832;60.658;2023-10-19T03:15:00;97205.91;;;7.63;47.19
42727;BME280;28372;56.832;60.658;2023-10-19T03:17:31;97196.00;;;7.70;46.91
42727;BME280;28372;56.832;60.658;2023-10-19T03:19:59;97201.41;;;7.74;46.67
42727;BME280;28372;56.832;60.658;2023-10-19T03:22:28;97195.47;;;7.92;45.45
42727;BME280;28372;56.832;60.658;2023-10-19T03:24:57;97204.22;;;7.81;46.95
42727;BME280;28372;56.832;60.658;2023-10-19T03:27:48;97198.78;;;7.78;46.40
42727;BME280;28372;56.832;60.658;2023-10-19T03:30:16;97204.25;;;7.85;46.16
42727;BME280;28372;56.832;60.658;2023-10-19T03:32:46;97218.50;;;7.89;45.97
42727;BME280;28372;56.832;60.658;2023-10-19T03:35:14;97215.13;;;7.96;45.54
42727;BME280;28372;56.832;60.658;2023-10-19T03:37:43;97226.22;;;7.91;45.54
42727;BME280;28372;56.832;60.658;2023-10-19T03:40:15;97233.47;;;7.86;46.03
42727;BME280;28372;56.832;60.658;2023-10-19T03:42:52;97234.38;;;7.98;45.68
42727;BME280;28372;56.832;60.658;2023-10-19T03:45:22;97232.13;;;8.03;45.15
42727;BME280;28372;56.832;60.658;2023-10-19T03:47:51;97231.41;;;8.06;44.97
42727;BME280;28372;56.832;60.658;2023-10-19T03:50:22;97225.22;;;8.02;45.28
42727;BME280;28372;56.832;60.658;2023-10-19T03:52:50;97242.19;;;8.06;45.32
42727;BME280;28372;56.832;60.658;2023-10-19T03:55:19;97234.81;;;8.03;45.22
42727;BME280;28372;56.832;60.658;2023-10-19T03:57:46;97240.25;;;8.07;45.37
42727;BME280;28372;56.832;60.658;2023-10-19T04:00:18;97232.13;;;8.03;45.47
42727;BME280;28372;56.832;60.658;2023-10-19T04:02:46;97230.38;;;8.18;45.29
42727;BME280;28372;56.832;60.658;2023-10-19T04:05:14;97234.19;;;8.51;44.47
42727;BME280;28372;56.832;60.658;2023-10-19T04:07:49;97240.22;;;8.82;43.43
42727;BME280;28372;56.832;60.658;2023-10-19T04:10:23;97250.66;;;8.84;44.25
42727;BME280;28372;56.832;60.658;2023-10-19T04:12:57;97246.09;;;8.91;43.63
42727;BME280;28372;56.832;60.658;2023-10-19T04:15:29;97264.47;;;9.31;43.13
42727;BME280;28372;56.832;60.658;2023-10-19T04:17:57;97263.78;;;9.45;42.75
42727;BME280;28372;56.832;60.658;2023-10-19T04:20:27;97262.75;;;9.67;42.25
42727;BME280;28372;56.832;60.658;2023-10-19T04:22:57;97261.28;;;9.84;41.41
42727;BME280;28372;56.832;60.658;2023-10-19T04:25:26;97257.56;;;10.18;41.52
42727;BME280;28372;56.832;60.658;2023-10-19T04:27:54;97256.09;;;10.35;40.81
42727;BME280;28372;56.832;60.658;2023-10-19T04:30:24;97264.63;;;10.44;40.18
42727;BME280;28372;56.832;60.658;2023-10-19T04:32:53;97260.38;;;10.47;39.89
42727;BME280;28372;56.832;60.658;2023-10-19T04:35:26;97260.38;;;10.47;40.16
42727;BME280;28372;56.832;60.658;2023-10-19T04:37:57;97267.34;;;10.51;39.81
42727;BME280;28372;56.832;60.658;2023-10-19T04:40:25;97281.19;;;10.39;39.87
42727;BME280;28372;56.832;60.658;2023-10-19T04:42:57;97280.09;;;10.58;41.03
42727;BME280;28372;56.832;60.658;2023-10-19T04:45:25;97290.13;;;10.65;40.62
42727;BME280;28372;56.832;60.658;2023-10-19T04:47:53;97286.28;;;10.55;41.22
42727;BME280;28372;56.832;60.658;2023-10-19T04:50:22;97291.63;;;10.48;40.88
42727;BME280;28372;56.832;60.658;2023-10-19T04:52:50;97289.72;;;10.44;41.03
42727;BME280;28372;56.832;60.658;2023-10-19T04:55:18;97288.16;;;10.43;41.03
42727;BME280;28372;56.832;60.658;2023-10-19T04:57:46;97287.84;;;10.70;41.71
42727;BME280;28372;56.832;60.658;2023-10-19T05:00:14;97297.53;;;11.18;41.21
42727;BME280;28372;56.832;60.658;2023-10-19T05:02:43;97290.88;;;11.77;40.54
42727;BME280;28372;56.832;60.658;2023-10-19T05:05:10;97296.53;;;12.19;40.29
42727;BME280;28372;56.832;60.658;2023-10-19T05:07:38;97295.47;;;12.79;40.04
42727;BME280;28372;56.832;60.658;2023-10-19T05:10:06;97301.97;;;13.42;38.78
42727;BME280;28372;56.832;60.658;2023-10-19T05:12:34;97303.75;;;13.97;37.64
42727;BME280;28372;56.832;60.658;2023-10-19T05:15:02;97304.94;;;14.27;36.43
42727;BME280;28372;56.832;60.658;2023-10-19T05:17:31;97306.03;;;14.64;35.46
42727;BME280;28372;56.832;60.658;2023-10-19T05:19:59;97297.44;;;14.93;34.50
42727;BME280;28372;56.832;60.658;2023-10-19T05:22:29;97306.19;;;15.08;33.89
42727;BME280;28372;56.832;60.658;2023-10-19T05:25:00;97316.13;;;15.18;33.53
42727;BME280;28372;56.832;60.658;2023-10-19T05:27:31;97304.72;;;15.71;33.21
42727;BME280;28372;56.832;60.658;2023-10-19T05:30:00;97317.50;;;16.18;32.47
42727;BME280;28372;56.832;60.658;2023-10-19T05:32:32;97321.72;;;16.59;31.34
42727;BME280;28372;56.832;60.658;2023-10-19T05:35:01;97321.28;;;16.97;31.35
42727;BME280;28372;56.832;60.658;2023-10-19T05:37:33;97322.09;;;16.98;30.08
42727;BME280;28372;56.832;60.658;2023-10-19T05:40:01;97326.56;;;16.88;29.15
42727;BME280;28372;56.832;60.658;2023-10-19T05:42:32;97331.56;;;16.73;29.65
42727;BME280;28372;56.832;60.658;2023-10-19T05:45:02;97321.81;;;16.72;29.61
42727;BME280;28372;56.832;60.658;2023-10-19T05:47:31;97329.84;;;16.42;29.37
42727;BME280;28372;56.832;60.658;2023-10-19T05:49:59;97328.34;;;16.21;29.38
42727;BME280;28372;56.832;60.658;2023-10-19T05:52:29;97339.44;;;15.90;29.33
42727;BME280;28372;56.832;60.658;2023-10-19T05:54:56;97336.66;;;15.94;30.05
42727;BME280;28372;56.832;60.658;2023-10-19T05:57:24;97348.69;;;15.97;29.40
42727;BME280;28372;56.832;60.658;2023-10-19T05:59:52;97327.28;;;16.15;30.69
42727;BME280;28372;56.832;60.658;2023-10-19T06:02:20;97343.09;;;16.44;30.00
42727;BME280;28372;56.832;60.658;2023-10-19T06:04:59;97355.28;;;17.12;30.21
42727;BME280;28372;56.832;60.658;2023-10-19T06:07:29;97375.09;;;17.17;28.80
42727;BME280;28372;56.832;60.658;2023-10-19T06:09:56;97352.31;;;17.23;28.53
42727;BME280;28372;56.832;60.658;2023-10-19T06:12:24;97351.44;;;17.43;28.59
42727;BME280;28372;56.832;60.658;2023-10-19T06:14:52;97353.50;;;17.72;28.80
42727;BME280;28372;56.832;60.658;2023-10-19T06:17:19;97348.44;;;18.16;27.83
42727;BME280;28372;56.832;60.658;2023-10-19T06:19:47;97346.50;;;18.29;27.77
42727;BME280;28372;56.832;60.658;2023-10-19T06:22:15;97357.97;;;18.79;27.56
42727;BME280;28372;56.832;60.658;2023-10-19T06:24:44;97344.63;;;19.20;26.52
42727;BME280;28372;56.832;60.658;2023-10-19T06:27:11;97353.56;;;19.59;26.38
42727;BME280;28372;56.832;60.658;2023-10-19T06:29:39;97332.97;;;20.34;25.09
42727;BME280;28372;56.832;60.658;2023-10-19T06:32:07;97350.97;;;20.79;24.86
42727;BME280;28372;56.832;60.658;2023-10-19T06:34:34;97360.94;;;20.95;23.80
42727;BME280;28372;56.832;60.658;2023-10-19T06:37:02;97358.03;;;21.49;23.34
42727;BME280;28372;56.832;60.658;2023-10-19T06:39:31;97352.59;;;21.95;23.10
42727;BME280;28372;56.832;60.658;2023-10-19T06:41:59;97357.66;;;22.34;22.68
42727;BME280;28372;56.832;60.658;2023-10-19T06:44:29;97368.44;;;22.74;21.18
42727;BME280;28372;56.832;60.658;2023-10-19T06:46:57;97372.19;;;22.53;21.00
42727;BME280;28372;56.832;60.658;2023-10-19T06:49:25;97370.38;;;22.40;22.10
42727;BME280;28372;56.832;60.658;2023-10-19T06:51:53;97374.78;;;22.56;21.40
42727;BME280;28372;56.832;60.658;2023-10-19T06:54:21;97391.91;;;22.70;21.30
42727;BME280;28372;56.832;60.658;2023-10-19T06:56:48;97388.72;;;22.44;21.45
42727;BME280;28372;56.832;60.658;2023-10-19T06:59:16;97399.75;;;22.44;20.49
42727;BME280;28372;56.832;60.658;2023-10-19T07:01:44;97406.16;;;21.85;20.63
42727;BME280;28372;56.832;60.658;2023-10-19T07:04:14;97387.97;;;21.37;21.81
42727;BME280;28372;56.832;60.658;2023-10-19T07:06:41;97382.00;;;21.30;21.59
42727;BME280;28372;56.832;60.658;2023-10-19T07:09:09;97406.38;;;21.09;21.37
42727;BME280;28372;56.832;60.658;2023-10-19T07:11:38;97400.59;;;20.85;22.11
42727;BME280;28372;56.832;60.658;2023-10-19T07:14:05;97410.31;;;20.77;22.31
42727;BME280;28372;56.832;60.658;2023-10-19T07:16:35;97393.53;;;20.75;22.51
42727;BME280;28372;56.832;60.658;2023-10-19T07:19:03;97409.56;;;20.54;22.27
42727;BME280;28372;56.832;60.658;2023-10-19T07:21:32;97396.00;;;20.37;23.07
42727;BME280;28372;56.832;60.658;2023-10-19T07:24:03;97424.34;;;20.12;22.64
42727;BME280;28372;56.832;60.658;2023-10-19T07:26:33;97417.09;;;19.83;22.02
42727;BME280;28372;56.832;60.658;2023-10-19T07:29:09;97423.84;;;19.79;22.65
42727;BME280;28372;56.832;60.658;2023-10-19T07:31:37;97419.38;;;19.59;23.00
42727;BME280;28372;56.832;60.658;2023-10-19T07:34:06;97419.72;;;19.35;22.73
42727;BME280;28372;56.832;60.658;2023-10-19T07:36:35;97421.38;;;19.07;23.20
42727;BME280;28372;56.832;60.658;2023-10-19T07:39:04;97421.16;;;18.89;23.32
42727;BME280;28372;56.832;60.658;2023-10-19T07:41:32;97400.59;;;18.80;23.40
42727;BME280;28372;56.832;60.658;2023-10-19T07:44:03;97422.59;;;18.64;23.32
42727;BME280;28372;56.832;60.658;2023-10-19T07:46:32;97447.66;;;18.49;23.96
42727;BME280;28372;56.832;60.658;2023-10-19T07:49:00;97434.56;;;18.11;23.76
42727;BME280;28372;56.832;60.658;2023-10-19T07:51:30;97442.53;;;17.89;24.05
42727;BME280;28372;56.832;60.658;2023-10-19T07:53:58;97442.19;;;17.71;24.42
42727;BME280;28372;56.832;60.658;2023-10-19T07:56:26;97450.22;;;17.45;24.88
42727;BME280;28372;56.832;60.658;2023-10-19T07:58:53;97442.47;;;16.87;24.83
42727;BME280;28372;56.832;60.658;2023-10-19T08:01:21;97439.59;;;16.94;25.25
42727;BME280;28372;56.832;60.658;2023-10-19T08:03:50;97450.91;;;16.96;25.66
42727;BME280;28372;56.832;60.658;2023-10-19T08:06:19;97444.28;;;16.73;25.26
42727;BME280;28372;56.832;60.658;2023-10-19T08:08:46;97446.38;;;16.25;25.36
42727;BME280;28372;56.832;60.658;2023-10-19T08:11:14;97444.56;;;16.19;25.69
42727;BME280;28372;56.832;60.658;2023-10-19T08:13:42;97462.72;;;16.25;25.79
42727;BME280;28372;56.832;60.658;2023-10-19T08:16:10;97469.84;;;15.99;26.07
42727;BME280;28372;56.832;60.658;2023-10-19T08:18:39;97471.31;;;15.76;26.64
42727;BME280;28372;56.832;60.658;2023-10-19T08:21:07;97481.44;;;15.80;26.97
42727;BME280;28372;56.832;60.658;2023-10-19T08:23:35;97472.44;;;15.83;27.03
42727;BME280;28372;56.832;60.658;2023-10-19T08:26:03;97474.69;;;15.61;27.01
42727;BME280;28372;56.832;60.658;2023-10-19T08:28:33;97473.34;;;15.45;27.24
42727;BME280;28372;56.832;60.658;2023-10-19T08:31:01;97478.94;;;15.34;27.37
42727;BME280;28372;56.832;60.658;2023-10-19T08:33:29;97482.84;;;15.06;27.57
42727;BME280;28372;56.832;60.658;2023-10-19T08:35:57;97477.94;;;14.94;28.11
42727;BME280;28372;56.832;60.658;2023-10-19T08:38:27;97485.16;;;15.07;27.92
42727;BME280;28372;56.832;60.658;2023-10-19T08:40:56;97481.94;;;15.16;27.73
42727;BME280;28372;56.832;60.658;2023-10-19T08:43:24;97482.63;;;14.89;27.99
42727;BME280;28372;56.832;60.658;2023-10-19T08:45:53;97490.00;;;14.54;28.37
42727;BME280;28372;56.832;60.658;2023-10-19T08:48:22;97483.56;;;14.41;28.54
42727;BME280;28372;56.832;60.658;2023-10-19T08:50:51;97493.09;;;14.18;28.78
42727;BME280;28372;56.832;60.658;2023-10-19T08:53:21;97503.19;;;14.18;29.26
42727;BME280;28372;56.832;60.658;2023-10-19T08:55:48;97503.78;;;13.95;29.42
42727;BME280;28372;56.832;60.658;2023-10-19T08:58:20;97510.81;;;13.88;30.13
42727;BME280;28372;56.832;60.658;2023-10-19T09:00:50;97505.75;;;13.91;30.12
42727;BME280;28372;56.832;60.658;2023-10-19T09:03:23;97515.38;;;14.48;31.41
42727;BME280;28372;56.832;60.658;2023-10-19T09:05:53;97500.47;;;13.69;30.12
42727;BME280;28372;56.832;60.658;2023-10-19T09:08:22;97503.28;;;13.54;30.81
42727;BME280;28372;56.832;60.658;2023-10-19T09:10:50;97510.69;;;13.50;30.90
42727;BME280;28372;56.832;60.658;2023-10-19T09:13:23;97505.25;;;13.50;30.69
42727;BME280;28372;56.832;60.658;2023-10-19T09:15:52;97510.63;;;13.61;31.07
42727;BME280;28372;56.832;60.658;2023-10-19T09:18:25;97522.94;;;13.73;30.88
42727;BME280;28372;56.832;60.658;2023-10-19T09:20:57;97517.22;;;13.60;30.85
42727;BME280;28372;56.832;60.658;2023-10-19T09:23:35;97519.63;;;13.47;31.09
42727;BME280;28372;56.832;60.658;2023-10-19T09:26:05;97519.47;;;13.73;30.98
42727;BME280;28372;56.832;60.658;2023-10-19T09:28:36;97522.88;;;13.84;30.59
42727;BME280;28372;56.832;60.658;2023-10-19T09:31:04;97519.06;;;13.74;30.62
42727;BME280;28372;56.832;60.658;2023-10-19T09:33:33;97526.16;;;13.61;30.63
42727;BME280;28372;56.832;60.658;2023-10-19T09:36:03;97542.53;;;13.46;31.62
42727;BME280;28372;56.832;60.658;2023-10-19T09:38:48;97540.25;;;13.30;31.85
42727;BME280;28372;56.832;60.658;2023-10-19T09:41:21;97545.06;;;12.94;32.25
42727;BME280;28372;56.832;60.658;2023-10-19T09:43:50;97547.75;;;12.97;32.18
42727;BME280;28372;56.832;60.658;2023-10-19T09:46:24;97541.50;;;13.11;32.99
42727;BME280;28372;56.832;60.658;2023-10-19T09:48:54;97548.19;;;12.89;32.30
42727;BME280;28372;56.832;60.658;2023-10-19T09:51:22;97547.38;;;12.95;32.39
42727;BME280;28372;56.832;60.658;2023-10-19T09:53:59;97554.00;;;12.87;33.30
42727;BME280;28372;56.832;60.658;2023-10-19T09:56:34;97551.75;;;12.60;33.84
42727;BME280;28372;56.832;60.658;2023-10-19T09:59:11;97561.03;;;12.70;33.59
42727;BME280;28372;56.832;60.658;2023-10-19T10:02:09;97557.56;;;12.59;33.94
42727;BME280;28372;56.832;60.658;2023-10-19T10:04:45;97553.72;;;12.13;34.10
42727;BME280;28372;56.832;60.658;2023-10-19T10:07:14;97560.69;;;12.18;34.35
42727;BME280;28372;56.832;60.658;2023-10-19T10:10:06;97568.81;;;12.14;34.25
42727;BME280;28372;56.832;60.658;2023-10-19T10:12:33;97573.44;;;11.99;34.50
42727;BME280;28372;56.832;60.658;2023-10-19T10:15:04;97579.25;;;11.87;34.98
42727;BME280;28372;56.832;60.658;2023-10-19T10:17:38;97574.22;;;11.96;34.71
42727;BME280;28372;56.832;60.658;2023-10-19T10:23:18;97574.63;;;12.16;34.51
42727;BME280;28372;56.832;60.658;2023-10-19T10:25:49;97576.09;;;11.74;34.97
42727;BME280;28372;56.832;60.658;2023-10-19T10:28:19;97573.00;;;11.72;34.86
42727;BME280;28372;56.832;60.658;2023-10-19T10:31:09;97580.84;;;12.16;34.55
42727;BME280;28372;56.832;60.658;2023-10-19T10:33:55;97575.34;;;11.84;34.32
42727;BME280;28372;56.832;60.658;2023-10-19T10:36:23;97572.63;;;11.80;34.08
42727;BME280;28372;56.832;60.658;2023-10-19T10:38:51;97572.63;;;11.88;34.25
42727;BME280;28372;56.832;60.658;2023-10-19T10:41:23;97574.63;;;12.05;34.32
42727;BME280;28372;56.832;60.658;2023-10-19T10:43:56;97576.19;;;12.24;33.57
42727;BME280;28372;56.832;60.658;2023-10-19T10:46:26;97571.91;;;12.16;33.39
42727;BME280;28372;56.832;60.658;2023-10-19T10:48:57;97582.75;;;11.98;33.13
42727;BME280;28372;56.832;60.658;2023-10-19T10:51:26;97581.94;;;11.83;33.70
42727;BME280;28372;56.832;60.658;2023-10-19T10:53:57;97601.66;;;11.83;33.32
42727;BME280;28372;56.832;60.658;2023-10-19T10:56:25;97611.69;;;11.65;33.17
42727;BME280;28372;56.832;60.658;2023-10-19T10:58:53;97595.84;;;11.74;32.85
42727;BME280;28372;56.832;60.658;2023-10-19T11:01:29;97606.31;;;11.76;33.46
42727;BME280;28372;56.832;60.658;2023-10-19T11:04:06;97608.16;;;11.54;33.86
42727;BME280;28372;56.832;60.658;2023-10-19T11:06:47;97610.13;;;11.64;33.61
42727;BME280;28372;56.832;60.658;2023-10-19T11:09:15;97613.84;;;11.20;33.61
42727;BME280;28372;56.832;60.658;2023-10-19T11:11:49;97602.13;;;10.97;34.00
42727;BME280;28372;56.832;60.658;2023-10-19T11:14:20;97611.34;;;10.89;34.90
42727;BME280;28372;56.832;60.658;2023-10-19T11:16:51;97613.34;;;11.00;34.25
42727;BME280;28372;56.832;60.658;2023-10-19T11:19:19;97604.88;;;11.01;34.05
42727;BME280;28372;56.832;60.658;2023-10-19T11:21:54;97621.16;;;11.19;34.87
42727;BME280;28372;56.832;60.658;2023-10-19T11:24:27;97631.59;;;11.10;34.47
42727;BME280;28372;56.832;60.658;2023-10-19T11:27:04;97624.63;;;11.12;33.20
42727;BME280;28372;56.832;60.658;2023-10-19T11:29:32;97625.75;;;11.04;34.15
42727;BME280;28372;56.832;60.658;2023-10-19T11:32:01;97623.41;;;10.99;34.08
42727;BME280;28372;56.832;60.658;2023-10-19T11:34:30;97632.75;;;11.12;33.47
42727;BME280;28372;56.832;60.658;2023-10-19T11:36:58;97633.25;;;11.36;33.12
42727;BME280;28372;56.832;60.658;2023-10-19T11:39:30;97634.75;;;11.30;32.75
42727;BME280;28372;56.832;60.658;2023-10-19T11:41:58;97632.16;;;11.55;33.02
42727;BME280;28372;56.832;60.658;2023-10-19T11:44:26;97626.19;;;11.17;33.35
42727;BME280;28372;56.832;60.658;2023-10-19T11:46:53;97630.75;;;11.02;33.76
42727;BME280;28372;56.832;60.658;2023-10-19T11:49:21;97631.44;;;10.85;34.20
42727;BME280;28372;56.832;60.658;2023-10-19T11:51:53;97637.16;;;10.72;34.18
42727;BME280;28372;56.832;60.658;2023-10-19T11:54:21;97634.47;;;10.76;34.89
42727;BME280;28372;56.832;60.658;2023-10-19T11:56:49;97632.50;;;10.73;34.67
42727;BME280;28372;56.832;60.658;2023-10-19T11:59:16;97645.97;;;10.66;35.44
42727;BME280;28372;56.832;60.658;2023-10-19T12:01:44;97625.84;;;10.59;35.50
42727;BME280;28372;56.832;60.658;2023-10-19T12:04:13;97643.31;;;10.73;35.36
42727;BME280;28372;56.832;60.658;2023-10-19T12:06:41;97632.50;;;10.69;35.24
42727;BME280;28372;56.832;60.658;2023-10-19T12:09:09;97639.47;;;10.74;35.25
42727;BME280;28372;56.832;60.658;2023-10-19T12:11:46;97642.09;;;10.63;35.78
42727;BME280;28372;56.832;60.658;2023-10-19T12:14:15;97646.69;;;10.55;35.93
42727;BME280;28372;56.832;60.658;2023-10-19T12:16:43;97643.44;;;10.35;36.35
42727;BME280;28372;56.832;60.658;2023-10-19T12:19:13;97638.81;;;10.39;36.44
42727;BME280;28372;56.832;60.658;2023-10-19T12:21:41;97638.94;;;10.54;36.41
42727;BME280;28372;56.832;60.658;2023-10-19T12:24:09;97641.94;;;10.41;37.12
42727;BME280;28372;56.832;60.658;2023-10-19T12:26:37;97650.34;;;10.33;37.34
42727;BME280;28372;56.832;60.658;2023-10-19T12:29:06;97639.75;;;10.17;37.54
42727;BME280;28372;56.832;60.658;2023-10-19T12:31:37;97656.69;;;10.10;38.44
42727;BME280;28372;56.832;60.658;2023-10-19T12:34:07;97658.47;;;9.95;38.57
42727;BME280;28372;56.832;60.658;2023-10-19T12:36:35;97663.78;;;9.88;39.22
42727;BME280;28372;56.832;60.658;2023-10-19T12:39:03;97677.44;;;10.02;38.85
42727;BME280;28372;56.832;60.658;2023-10-19T12:41:38;97665.50;;;10.03;39.03
42727;BME280;28372;56.832;60.658;2023-10-19T12:44:05;97667.72;;;9.94;39.63
42727;BME280;28372;56.832;60.658;2023-10-19T12:46:36;97676.50;;;9.87;39.26
42727;BME280;28372;56.832;60.658;2023-10-19T12:49:04;97681.47;;;9.82;39.86
42727;BME280;28372;56.832;60.658;2023-10-19T12:51:36;97676.66;;;9.64;40.30
42727;BME280;28372;56.832;60.658;2023-10-19T12:54:03;97678.91;;;9.62;40.39
42727;BME280;28372;56.832;60.658;2023-10-19T12:56:31;97672.63;;;9.51;40.78
42727;BME280;28372;56.832;60.658;2023-10-19T12:59:00;97682.59;;;9.47;41.24
42727;BME280;28372;56.832;60.658;2023-10-19T13:01:28;97680.00;;;9.54;40.83
42727;BME280;28372;56.832;60.658;2023-10-19T13:03:56;97688.13;;;9.57;40.59
42727;BME280;28372;56.832;60.658;2023-10-19T13:06:23;97679.84;;;9.43;41.36
42727;BME280;28372;56.832;60.658;2023-10-19T13:08:56;97685.41;;;9.54;41.02
42727;BME280;28372;56.832;60.658;2023-10-19T13:11:25;97690.38;;;9.52;40.77
42727;BME280;28372;56.832;60.658;2023-10-19T13:13:54;97699.94;;;9.46;41.19